aviador You're here:

SCTE Decoded Metar

PUERTO MONTT in CHILE
Report Time2018-07-18 10:00:00
UTC Time2018-07-18 10:56:57
Flight Rules lifr LIFR
WindVRB at 01 kt
Visibility0300 m
Phenomena:Fog
Clouds:Broken 002 Hf
Ceiling200 ft
Temp00°C (ISA -14)
Dew Point00°C (100% RH)
AAT-2.3°C
QNH1023 hPa
Density Alt-1,739 ft
Elevation282 ft
Report Wrong Elevation
Raw Report
METAR SCTE 181000Z VRB01KT 0300 R35/0500N FG BKN002 00/M00 Q1023 NOSIG=

Extra information for SCTE:More info

Metar Taf Metar & Taf Last 4 Metars F.Rules Stats Wind Profile Meteogram Temp Stats Airport Information Weather charts Add Link Nearby VenuesMetar ALERT Operation Metar Decoded Social comments